sensor_id;sensor_type;location;lat;lon;timestamp;temperature;humidity
15937;DHT22;9163;48.818;8.976;2023-04-25T00:00:11;6.90;99.90
15937;DHT22;9163;48.818;8.976;2023-04-25T00:02:38;6.90;99.90
15937;DHT22;9163;48.818;8.976;2023-04-25T00:05:08;6.90;99.90
15937;DHT22;9163;48.818;8.976;2023-04-25T00:07:35;6.90;99.90
15937;DHT22;9163;48.818;8.976;2023-04-25T00:10:03;6.90;99.90
15937;DHT22;9163;48.818;8.976;2023-04-25T00:12:30;6.90;99.90
15937;DHT22;9163;48.818;8.976;2023-04-25T00:14:59;6.90;99.90
15937;DHT22;9163;48.818;8.976;2023-04-25T00:17:26;6.80;99.90
15937;DHT22;9163;48.818;8.976;2023-04-25T00:19:54;6.80;99.90
15937;DHT22;9163;48.818;8.976;2023-04-25T00:22:23;6.80;99.90
15937;DHT22;9163;48.818;8.976;2023-04-25T00:24:50;6.70;99.90
15937;DHT22;9163;48.818;8.976;2023-04-25T00:27:19;6.70;99.90
15937;DHT22;9163;48.818;8.976;2023-04-25T00:29:46;6.70;99.90
15937;DHT22;9163;48.818;8.976;2023-04-25T00:32:13;6.70;99.90
15937;DHT22;9163;48.818;8.976;2023-04-25T00:34:40;6.70;99.90
15937;DHT22;9163;48.818;8.976;2023-04-25T00:37:08;6.70;99.90
15937;DHT22;9163;48.818;8.976;2023-04-25T00:39:37;6.70;99.90
15937;DHT22;9163;48.818;8.976;2023-04-25T00:42:05;6.70;99.90
15937;DHT22;9163;48.818;8.976;2023-04-25T00:44:32;6.80;99.90
15937;DHT22;9163;48.818;8.976;2023-04-25T00:47:02;6.70;99.90
15937;DHT22;9163;48.818;8.976;2023-04-25T00:49:29;6.70;99.90
15937;DHT22;9163;48.818;8.976;2023-04-25T00:51:56;6.60;99.90
15937;DHT22;9163;48.818;8.976;2023-04-25T00:54:24;6.60;99.90
15937;DHT22;9163;48.818;8.976;2023-04-25T00:56:53;6.70;99.90
15937;DHT22;9163;48.818;8.976;2023-04-25T00:59:20;6.60;99.90
15937;DHT22;9163;48.818;8.976;2023-04-25T01:01:48;6.70;99.90
15937;DHT22;9163;48.818;8.976;2023-04-25T01:04:15;6.70;99.90
15937;DHT22;9163;48.818;8.976;2023-04-25T01:06:42;6.60;99.90
15937;DHT22;9163;48.818;8.976;2023-04-25T01:09:10;6.60;99.90
15937;DHT22;9163;48.818;8.976;2023-04-25T01:11:38;6.50;99.90
15937;DHT22;9163;48.818;8.976;2023-04-25T01:14:07;6.50;99.90
15937;DHT22;9163;48.818;8.976;2023-04-25T01:16:34;6.40;99.90
15937;DHT22;9163;48.818;8.976;2023-04-25T01:19:05;6.50;99.90
15937;DHT22;9163;48.818;8.976;2023-04-25T01:21:38;6.50;99.90
15937;DHT22;9163;48.818;8.976;2023-04-25T01:24:06;6.60;99.90
15937;DHT22;9163;48.818;8.976;2023-04-25T01:26:34;6.60;99.90
15937;DHT22;9163;48.818;8.976;2023-04-25T01:29:01;6.50;99.90
15937;DHT22;9163;48.818;8.976;2023-04-25T01:31:32;6.50;99.90
15937;DHT22;9163;48.818;8.976;2023-04-25T01:33:59;6.60;99.90
15937;DHT22;9163;48.818;8.976;2023-04-25T01:36:26;6.60;99.90
15937;DHT22;9163;48.818;8.976;2023-04-25T01:38:55;6.50;99.90
15937;DHT22;9163;48.818;8.976;2023-04-25T01:41:23;6.50;99.90
15937;DHT22;9163;48.818;8.976;2023-04-25T01:43:50;6.50;99.90
15937;DHT22;9163;48.818;8.976;2023-04-25T01:46:18;6.50;99.90
15937;DHT22;9163;48.818;8.976;2023-04-25T01:48:46;6.50;99.90
15937;DHT22;9163;48.818;8.976;2023-04-25T01:51:13;6.50;99.90
15937;DHT22;9163;48.818;8.976;2023-04-25T01:53:41;6.50;99.90
15937;DHT22;9163;48.818;8.976;2023-04-25T01:56:10;6.50;99.90
15937;DHT22;9163;48.818;8.976;2023-04-25T01:58:37;6.50;99.90
15937;DHT22;9163;48.818;8.976;2023-04-25T02:01:05;6.50;99.90
15937;DHT22;9163;48.818;8.976;2023-04-25T02:03:32;6.40;99.90
15937;DHT22;9163;48.818;8.976;2023-04-25T02:05:59;6.40;99.90
15937;DHT22;9163;48.818;8.976;2023-04-25T02:08:26;6.40;99.90
15937;DHT22;9163;48.818;8.976;2023-04-25T02:10:54;6.40;99.90
15937;DHT22;9163;48.818;8.976;2023-04-25T02:13:22;6.40;99.90
15937;DHT22;9163;48.818;8.976;2023-04-25T02:15:50;6.40;99.90
15937;DHT22;9163;48.818;8.976;2023-04-25T02:18:17;6.30;99.90
15937;DHT22;9163;48.818;8.976;2023-04-25T02:20:46;6.30;99.90
15937;DHT22;9163;48.818;8.976;2023-04-25T02:23:13;6.30;99.90
15937;DHT22;9163;48.818;8.976;2023-04-25T02:25:41;6.20;99.90
15937;DHT22;9163;48.818;8.976;2023-04-25T02:28:08;6.20;99.90
15937;DHT22;9163;48.818;8.976;2023-04-25T02:30:37;6.30;99.90
15937;DHT22;9163;48.818;8.976;2023-04-25T02:33:04;6.30;99.90
15937;DHT22;9163;48.818;8.976;2023-04-25T02:35:32;6.20;99.90
15937;DHT22;9163;48.818;8.976;2023-04-25T02:37:59;6.20;99.90
15937;DHT22;9163;48.818;8.976;2023-04-25T02:40:26;6.20;99.90
15937;DHT22;9163;48.818;8.976;2023-04-25T02:42:54;6.10;99.90
15937;DHT22;9163;48.818;8.976;2023-04-25T02:45:21;6.10;99.90
15937;DHT22;9163;48.818;8.976;2023-04-25T02:47:49;6.00;99.90
15937;DHT22;9163;48.818;8.976;2023-04-25T02:50:17;6.00;99.90
15937;DHT22;9163;48.818;8.976;2023-04-25T02:52:44;6.00;99.90
15937;DHT22;9163;48.818;8.976;2023-04-25T02:55:12;6.00;99.90
15937;DHT22;9163;48.818;8.976;2023-04-25T02:57:39;6.00;99.90
15937;DHT22;9163;48.818;8.976;2023-04-25T03:00:07;6.10;99.90
15937;DHT22;9163;48.818;8.976;2023-04-25T03:02:37;6.10;99.90
15937;DHT22;9163;48.818;8.976;2023-04-25T03:05:06;6.10;99.90
15937;DHT22;9163;48.818;8.976;2023-04-25T03:07:34;6.10;99.90
15937;DHT22;9163;48.818;8.976;2023-04-25T03:10:01;6.10;99.90
15937;DHT22;9163;48.818;8.976;2023-04-25T03:12:28;6.10;99.90
15937;DHT22;9163;48.818;8.976;2023-04-25T03:14:55;6.10;99.90
15937;DHT22;9163;48.818;8.976;2023-04-25T03:17:22;6.10;99.90
15937;DHT22;9163;48.818;8.976;2023-04-25T03:19:50;6.10;99.90
15937;DHT22;9163;48.818;8.976;2023-04-25T03:22:18;6.10;99.90
15937;DHT22;9163;48.818;8.976;2023-04-25T03:24:45;6.10;99.90
15937;DHT22;9163;48.818;8.976;2023-04-25T03:27:13;6.20;99.90
15937;DHT22;9163;48.818;8.976;2023-04-25T03:29:40;6.20;99.90
15937;DHT22;9163;48.818;8.976;2023-04-25T03:32:07;6.10;99.90
15937;DHT22;9163;48.818;8.976;2023-04-25T03:34:34;6.10;99.90
15937;DHT22;9163;48.818;8.976;2023-04-25T03:37:01;6.20;99.90
15937;DHT22;9163;48.818;8.976;2023-04-25T03:39:30;6.20;99.90
15937;DHT22;9163;48.818;8.976;2023-04-25T03:41:57;6.20;99.90
15937;DHT22;9163;48.818;8.976;2023-04-25T03:44:24;6.20;99.90
15937;DHT22;9163;48.818;8.976;2023-04-25T03:46:52;6.20;99.90
15937;DHT22;9163;48.818;8.976;2023-04-25T03:49:19;6.20;99.90
15937;DHT22;9163;48.818;8.976;2023-04-25T03:51:46;6.20;99.90
15937;DHT22;9163;48.818;8.976;2023-04-25T03:54:13;6.20;99.90
15937;DHT22;9163;48.818;8.976;2023-04-25T03:56:42;6.20;99.90
15937;DHT22;9163;48.818;8.976;2023-04-25T03:59:09;6.10;99.90
15937;DHT22;9163;48.818;8.976;2023-04-25T04:01:36;6.00;99.90
15937;DHT22;9163;48.818;8.976;2023-04-25T04:04:04;6.00;99.90
15937;DHT22;9163;48.818;8.976;2023-04-25T04:06:31;5.90;99.90
15937;DHT22;9163;48.818;8.976;2023-04-25T04:08:59;5.90;99.90
15937;DHT22;9163;48.818;8.976;2023-04-25T04:11:27;5.90;99.90
15937;DHT22;9163;48.818;8.976;2023-04-25T04:13:55;5.80;99.90
15937;DHT22;9163;48.818;8.976;2023-04-25T04:16:22;5.70;99.90
15937;DHT22;9163;48.818;8.976;2023-04-25T04:18:49;5.80;99.90
15937;DHT22;9163;48.818;8.976;2023-04-25T04:21:17;5.80;99.90
15937;DHT22;9163;48.818;8.976;2023-04-25T04:23:44;5.90;99.90
15937;DHT22;9163;48.818;8.976;2023-04-25T04:26:12;5.80;99.90
15937;DHT22;9163;48.818;8.976;2023-04-25T04:28:41;5.90;99.90
15937;DHT22;9163;48.818;8.976;2023-04-25T04:31:09;6.00;99.90
15937;DHT22;9163;48.818;8.976;2023-04-25T04:33:37;6.00;99.90
15937;DHT22;9163;48.818;8.976;2023-04-25T04:36:05;6.10;99.90
15937;DHT22;9163;48.818;8.976;2023-04-25T04:38:34;6.10;99.90
15937;DHT22;9163;48.818;8.976;2023-04-25T04:41:02;6.20;99.90
15937;DHT22;9163;48.818;8.976;2023-04-25T04:43:29;6.20;99.90
15937;DHT22;9163;48.818;8.976;2023-04-25T04:45:58;6.20;99.90
15937;DHT22;9163;48.818;8.976;2023-04-25T04:48:28;6.30;99.90
15937;DHT22;9163;48.818;8.976;2023-04-25T04:50:58;6.30;99.90
15937;DHT22;9163;48.818;8.976;2023-04-25T04:53:26;6.30;99.90
15937;DHT22;9163;48.818;8.976;2023-04-25T04:55:53;6.30;99.90
15937;DHT22;9163;48.818;8.976;2023-04-25T04:58:21;6.30;99.90
15937;DHT22;9163;48.818;8.976;2023-04-25T05:00:48;6.40;99.90
15937;DHT22;9163;48.818;8.976;2023-04-25T05:03:16;6.40;99.90
15937;DHT22;9163;48.818;8.976;2023-04-25T05:05:44;6.50;99.90
15937;DHT22;9163;48.818;8.976;2023-04-25T05:08:12;6.60;99.90
15937;DHT22;9163;48.818;8.976;2023-04-25T05:10:39;6.60;99.90
15937;DHT22;9163;48.818;8.976;2023-04-25T05:13:07;6.60;99.90
15937;DHT22;9163;48.818;8.976;2023-04-25T05:15:34;6.60;99.90
15937;DHT22;9163;48.818;8.976;2023-04-25T05:18:02;6.70;99.90
15937;DHT22;9163;48.818;8.976;2023-04-25T05:20:29;6.50;99.90
15937;DHT22;9163;48.818;8.976;2023-04-25T05:22:58;6.60;99.90
15937;DHT22;9163;48.818;8.976;2023-04-25T05:25:25;6.60;99.90
15937;DHT22;9163;48.818;8.976;2023-04-25T05:27:53;6.60;99.90
15937;DHT22;9163;48.818;8.976;2023-04-25T05:30:20;6.60;99.90
15937;DHT22;9163;48.818;8.976;2023-04-25T05:32:47;6.60;99.90
15937;DHT22;9163;48.818;8.976;2023-04-25T05:35:15;6.60;99.90
15937;DHT22;9163;48.818;8.976;2023-04-25T05:37:42;6.40;99.90
15937;DHT22;9163;48.818;8.976;2023-04-25T05:40:11;6.50;99.90
15937;DHT22;9163;48.818;8.976;2023-04-25T05:42:38;6.50;99.90
15937;DHT22;9163;48.818;8.976;2023-04-25T05:45:06;6.50;99.90
15937;DHT22;9163;48.818;8.976;2023-04-25T05:47:33;6.50;99.90
15937;DHT22;9163;48.818;8.976;2023-04-25T05:50:01;6.30;99.90
15937;DHT22;9163;48.818;8.976;2023-04-25T05:52:28;6.40;99.90
15937;DHT22;9163;48.818;8.976;2023-04-25T05:54:55;6.50;99.90
15937;DHT22;9163;48.818;8.976;2023-04-25T05:57:25;6.40;99.90
15937;DHT22;9163;48.818;8.976;2023-04-25T05:59:53;6.40;99.90
15937;DHT22;9163;48.818;8.976;2023-04-25T06:02:21;6.40;99.90
15937;DHT22;9163;48.818;8.976;2023-04-25T06:04:49;6.50;99.90
15937;DHT22;9163;48.818;8.976;2023-04-25T06:07:17;6.50;99.90
15937;DHT22;9163;48.818;8.976;2023-04-25T06:09:44;6.40;99.90
15937;DHT22;9163;48.818;8.976;2023-04-25T06:12:11;6.40;99.90
15937;DHT22;9163;48.818;8.976;2023-04-25T06:14:40;6.60;99.90
15937;DHT22;9163;48.818;8.976;2023-04-25T06:17:08;6.60;99.90
15937;DHT22;9163;48.818;8.976;2023-04-25T06:19:36;6.70;99.90
15937;DHT22;9163;48.818;8.976;2023-04-25T06:22:03;6.70;99.90
15937;DHT22;9163;48.818;8.976;2023-04-25T06:24:30;6.70;99.90
15937;DHT22;9163;48.818;8.976;2023-04-25T06:26:57;6.70;99.90
15937;DHT22;9163;48.818;8.976;2023-04-25T06:29:25;6.60;99.90
15937;DHT22;9163;48.818;8.976;2023-04-25T06:31:53;6.60;99.90
15937;DHT22;9163;48.818;8.976;2023-04-25T06:34:20;6.80;99.90
15937;DHT22;9163;48.818;8.976;2023-04-25T06:36:48;6.90;99.90
15937;DHT22;9163;48.818;8.976;2023-04-25T06:39:15;6.80;99.90
15937;DHT22;9163;48.818;8.976;2023-04-25T06:41:42;6.90;99.90
15937;DHT22;9163;48.818;8.976;2023-04-25T06:44:09;6.90;99.90
15937;DHT22;9163;48.818;8.976;2023-04-25T06:46:37;6.80;99.90
15937;DHT22;9163;48.818;8.976;2023-04-25T06:49:06;6.80;99.90
15937;DHT22;9163;48.818;8.976;2023-04-25T06:51:33;6.80;99.90
15937;DHT22;9163;48.818;8.976;2023-04-25T06:54:01;6.90;99.90
15937;DHT22;9163;48.818;8.976;2023-04-25T06:56:30;6.90;99.90
15937;DHT22;9163;48.818;8.976;2023-04-25T06:58:57;6.80;99.90
15937;DHT22;9163;48.818;8.976;2023-04-25T07:01:26;6.80;99.90
15937;DHT22;9163;48.818;8.976;2023-04-25T07:03:53;6.90;99.90
15937;DHT22;9163;48.818;8.976;2023-04-25T07:06:22;6.90;99.90
15937;DHT22;9163;48.818;8.976;2023-04-25T07:08:49;6.90;99.90
15937;DHT22;9163;48.818;8.976;2023-04-25T07:11:16;6.90;99.90
15937;DHT22;9163;48.818;8.976;2023-04-25T07:13:43;6.90;99.90
15937;DHT22;9163;48.818;8.976;2023-04-25T07:16:11;6.80;99.90
15937;DHT22;9163;48.818;8.976;2023-04-25T07:18:38;6.70;99.90
15937;DHT22;9163;48.818;8.976;2023-04-25T07:21:05;6.70;99.90
15937;DHT22;9163;48.818;8.976;2023-04-25T07:23:34;6.80;99.90
15937;DHT22;9163;48.818;8.976;2023-04-25T07:26:01;6.70;99.90
15937;DHT22;9163;48.818;8.976;2023-04-25T07:28:28;6.70;99.90
15937;DHT22;9163;48.818;8.976;2023-04-25T07:30:55;6.60;99.90
15937;DHT22;9163;48.818;8.976;2023-04-25T07:33:24;6.60;99.90
15937;DHT22;9163;48.818;8.976;2023-04-25T07:35:51;6.50;99.90
15937;DHT22;9163;48.818;8.976;2023-04-25T07:38:18;6.60;99.90
15937;DHT22;9163;48.818;8.976;2023-04-25T07:40:47;6.70;99.90
15937;DHT22;9163;48.818;8.976;2023-04-25T07:43:15;6.80;99.90
15937;DHT22;9163;48.818;8.976;2023-04-25T07:45:42;6.90;99.90
15937;DHT22;9163;48.818;8.976;2023-04-25T07:48:09;6.90;99.90
15937;DHT22;9163;48.818;8.976;2023-04-25T07:50:37;6.90;99.90
15937;DHT22;9163;48.818;8.976;2023-04-25T07:53:04;7.00;99.90
15937;DHT22;9163;48.818;8.976;2023-04-25T07:55:31;7.10;99.90
15937;DHT22;9163;48.818;8.976;2023-04-25T07:58:00;7.00;99.90
15937;DHT22;9163;48.818;8.976;2023-04-25T08:00:28;7.10;99.90
15937;DHT22;9163;48.818;8.976;2023-04-25T08:02:55;7.10;99.90
15937;DHT22;9163;48.818;8.976;2023-04-25T08:05:22;7.00;99.90
15937;DHT22;9163;48.818;8.976;2023-04-25T08:07:49;7.10;99.90
15937;DHT22;9163;48.818;8.976;2023-04-25T08:10:17;7.20;99.90
15937;DHT22;9163;48.818;8.976;2023-04-25T08:12:44;7.00;99.90
15937;DHT22;9163;48.818;8.976;2023-04-25T08:15:13;7.00;99.90
15937;DHT22;9163;48.818;8.976;2023-04-25T08:17:40;7.00;99.90
15937;DHT22;9163;48.818;8.976;2023-04-25T08:20:10;7.00;99.90
15937;DHT22;9163;48.818;8.976;2023-04-25T08:22:38;6.80;99.90
15937;DHT22;9163;48.818;8.976;2023-04-25T08:25:06;6.90;99.90
15937;DHT22;9163;48.818;8.976;2023-04-25T08:27:33;7.00;99.90
15937;DHT22;9163;48.818;8.976;2023-04-25T08:30:00;7.00;99.90
15937;DHT22;9163;48.818;8.976;2023-04-25T08:32:30;6.90;99.90
15937;DHT22;9163;48.818;8.976;2023-04-25T08:34:57;6.90;99.90
15937;DHT22;9163;48.818;8.976;2023-04-25T08:37:24;6.80;99.90
15937;DHT22;9163;48.818;8.976;2023-04-25T08:39:52;7.00;99.90
15937;DHT22;9163;48.818;8.976;2023-04-25T08:42:19;7.10;99.90
15937;DHT22;9163;48.818;8.976;2023-04-25T08:44:48;7.00;99.90
15937;DHT22;9163;48.818;8.976;2023-04-25T08:47:16;7.00;99.90
15937;DHT22;9163;48.818;8.976;2023-04-25T08:49:46;7.00;99.90
15937;DHT22;9163;48.818;8.976;2023-04-25T08:52:14;7.00;99.90
15937;DHT22;9163;48.818;8.976;2023-04-25T08:54:43;7.20;99.90
15937;DHT22;9163;48.818;8.976;2023-04-25T08:57:15;7.10;99.90
15937;DHT22;9163;48.818;8.976;2023-04-25T08:59:42;6.90;99.90
15937;DHT22;9163;48.818;8.976;2023-04-25T09:02:11;6.80;99.90
15937;DHT22;9163;48.818;8.976;2023-04-25T09:04:42;6.80;99.90
15937;DHT22;9163;48.818;8.976;2023-04-25T09:07:11;7.00;99.90
15937;DHT22;9163;48.818;8.976;2023-04-25T09:09:38;6.90;99.90
15937;DHT22;9163;48.818;8.976;2023-04-25T09:12:05;6.90;99.90
15937;DHT22;9163;48.818;8.976;2023-04-25T09:14:33;6.90;99.90
15937;DHT22;9163;48.818;8.976;2023-04-25T09:17:02;6.70;99.90
15937;DHT22;9163;48.818;8.976;2023-04-25T09:19:31;6.60;99.90
15937;DHT22;9163;48.818;8.976;2023-04-25T09:22:00;6.30;99.90
15937;DHT22;9163;48.818;8.976;2023-04-25T09:24:34;6.30;99.90
15937;DHT22;9163;48.818;8.976;2023-04-25T09:27:03;6.30;99.90
15937;DHT22;9163;48.818;8.976;2023-04-25T09:29:31;6.30;99.90
15937;DHT22;9163;48.818;8.976;2023-04-25T09:32:17;6.40;99.90
15937;DHT22;9163;48.818;8.976;2023-04-25T09:34:47;6.40;99.90
15937;DHT22;9163;48.818;8.976;2023-04-25T09:37:19;6.40;99.90
15937;DHT22;9163;48.818;8.976;2023-04-25T09:39:50;6.70;99.90
15937;DHT22;9163;48.818;8.976;2023-04-25T09:42:17;6.60;99.90
15937;DHT22;9163;48.818;8.976;2023-04-25T09:44:45;6.60;99.90
15937;DHT22;9163;48.818;8.976;2023-04-25T09:47:14;6.60;99.90
15937;DHT22;9163;48.818;8.976;2023-04-25T09:49:42;6.60;99.90
15937;DHT22;9163;48.818;8.976;2023-04-25T09:52:14;6.70;99.90
15937;DHT22;9163;48.818;8.976;2023-04-25T09:54:42;6.70;99.90
15937;DHT22;9163;48.818;8.976;2023-04-25T09:57:13;6.60;99.90
15937;DHT22;9163;48.818;8.976;2023-04-25T09:59:43;6.50;99.90
15937;DHT22;9163;48.818;8.976;2023-04-25T10:02:12;6.60;99.90
15937;DHT22;9163;48.818;8.976;2023-04-25T10:04:41;6.50;99.90
15937;DHT22;9163;48.818;8.976;2023-04-25T10:07:08;6.40;99.90
15937;DHT22;9163;48.818;8.976;2023-04-25T10:09:38;6.50;99.90
15937;DHT22;9163;48.818;8.976;2023-04-25T10:12:07;6.50;99.90
15937;DHT22;9163;48.818;8.976;2023-04-25T10:14:36;6.60;99.90
15937;DHT22;9163;48.818;8.976;2023-04-25T10:17:03;6.70;99.90
15937;DHT22;9163;48.818;8.976;2023-04-25T10:19:31;6.90;99.90
15937;DHT22;9163;48.818;8.976;2023-04-25T10:22:04;7.00;99.90
15937;DHT22;9163;48.818;8.976;2023-04-25T10:24:34;7.10;99.90
15937;DHT22;9163;48.818;8.976;2023-04-25T10:27:02;7.00;99.90
15937;DHT22;9163;48.818;8.976;2023-04-25T10:29:29;7.20;99.90
15937;DHT22;9163;48.818;8.976;2023-04-25T10:31:58;7.20;99.90
15937;DHT22;9163;48.818;8.976;2023-04-25T10:34:38;7.30;99.90
15937;DHT22;9163;48.818;8.976;2023-04-25T10:37:09;7.40;99.90
15937;DHT22;9163;48.818;8.976;2023-04-25T10:39:38;7.30;99.90
15937;DHT22;9163;48.818;8.976;2023-04-25T10:42:07;7.30;99.90
15937;DHT22;9163;48.818;8.976;2023-04-25T10:44:37;7.20;99.90
15937;DHT22;9163;48.818;8.976;2023-04-25T10:47:07;7.30;99.90
15937;DHT22;9163;48.818;8.976;2023-04-25T10:49:37;7.40;99.90
15937;DHT22;9163;48.818;8.976;2023-04-25T10:52:19;7.60;99.90
15937;DHT22;9163;48.818;8.976;2023-04-25T10:54:53;7.60;99.90
15937;DHT22;9163;48.818;8.976;2023-04-25T10:57:28;7.60;99.90
15937;DHT22;9163;48.818;8.976;2023-04-25T10:59:58;7.70;99.90
15937;DHT22;9163;48.818;8.976;2023-04-25T11:02:28;7.80;99.90
15937;DHT22;9163;48.818;8.976;2023-04-25T11:04:55;7.90;99.90
15937;DHT22;9163;48.818;8.976;2023-04-25T11:07:29;8.00;99.90
15937;DHT22;9163;48.818;8.976;2023-04-25T11:10:02;7.90;99.90
15937;DHT22;9163;48.818;8.976;2023-04-25T11:12:30;7.90;99.90
15937;DHT22;9163;48.818;8.976;2023-04-25T11:15:01;7.90;99.90
15937;DHT22;9163;48.818;8.976;2023-04-25T11:17:31;7.90;99.90
15937;DHT22;9163;48.818;8.976;2023-04-25T11:19:59;7.70;99.90
15937;DHT22;9163;48.818;8.976;2023-04-25T11:22:26;7.80;99.90
15937;DHT22;9163;48.818;8.976;2023-04-25T11:24:54;7.70;99.90
15937;DHT22;9163;48.818;8.976;2023-04-25T11:27:21;7.70;99.90
15937;DHT22;9163;48.818;8.976;2023-04-25T11:29:50;7.80;99.90
15937;DHT22;9163;48.818;8.976;2023-04-25T11:32:18;7.80;99.90
15937;DHT22;9163;48.818;8.976;2023-04-25T11:34:47;7.90;99.90
15937;DHT22;9163;48.818;8.976;2023-04-25T11:37:14;7.80;99.90
15937;DHT22;9163;48.818;8.976;2023-04-25T11:39:45;7.60;99.90
15937;DHT22;9163;48.818;8.976;2023-04-25T11:42:13;7.50;99.90
15937;DHT22;9163;48.818;8.976;2023-04-25T11:44:40;7.50;99.90
15937;DHT22;9163;48.818;8.976;2023-04-25T11:47:07;7.50;99.90
15937;DHT22;9163;48.818;8.976;2023-04-25T11:49:35;7.30;99.90
15937;DHT22;9163;48.818;8.976;2023-04-25T11:52:06;7.10;99.90
15937;DHT22;9163;48.818;8.976;2023-04-25T11:54:36;7.20;99.90
15937;DHT22;9163;48.818;8.976;2023-04-25T11:57:04;7.20;99.90
15937;DHT22;9163;48.818;8.976;2023-04-25T11:59:31;7.20;99.90
15937;DHT22;9163;48.818;8.976;2023-04-25T12:01:58;7.20;99.90
15937;DHT22;9163;48.818;8.976;2023-04-25T12:04:30;7.40;99.90
15937;DHT22;9163;48.818;8.976;2023-04-25T12:06:58;7.50;99.90
15937;DHT22;9163;48.818;8.976;2023-04-25T12:09:32;7.90;99.90
15937;DHT22;9163;48.818;8.976;2023-04-25T12:12:00;8.20;99.90
15937;DHT22;9163;48.818;8.976;2023-04-25T12:14:30;8.10;99.90
15937;DHT22;9163;48.818;8.976;2023-04-25T12:16:59;8.10;99.90
15937;DHT22;9163;48.818;8.976;2023-04-25T12:19:32;8.30;99.90
15937;DHT22;9163;48.818;8.976;2023-04-25T12:22:00;8.40;99.90
15937;DHT22;9163;48.818;8.976;2023-04-25T12:24:33;8.40;99.90
15937;DHT22;9163;48.818;8.976;2023-04-25T12:27:02;8.50;99.90
15937;DHT22;9163;48.818;8.976;2023-04-25T12:29:31;8.00;99.90
15937;DHT22;9163;48.818;8.976;2023-04-25T12:31:59;8.20;99.90
15937;DHT22;9163;48.818;8.976;2023-04-25T12:34:28;8.30;99.90
15937;DHT22;9163;48.818;8.976;2023-04-25T12:36:57;8.30;99.90
15937;DHT22;9163;48.818;8.976;2023-04-25T12:39:25;8.50;99.90
15937;DHT22;9163;48.818;8.976;2023-04-25T12:41:54;8.40;99.90
15937;DHT22;9163;48.818;8.976;2023-04-25T12:44:21;8.60;99.90
15937;DHT22;9163;48.818;8.976;2023-04-25T12:46:49;9.00;99.90
15937;DHT22;9163;48.818;8.976;2023-04-25T12:49:17;9.60;99.90
15937;DHT22;9163;48.818;8.976;2023-04-25T12:51:44;10.00;99.90
15937;DHT22;9163;48.818;8.976;2023-04-25T12:54:11;10.10;99.90
15937;DHT22;9163;48.818;8.976;2023-04-25T12:56:41;9.80;99.90
15937;DHT22;9163;48.818;8.976;2023-04-25T12:59:10;10.10;99.90
15937;DHT22;9163;48.818;8.976;2023-04-25T13:01:37;9.90;99.90
15937;DHT22;9163;48.818;8.976;2023-04-25T13:04:04;9.60;99.90
15937;DHT22;9163;48.818;8.976;2023-04-25T13:06:31;10.00;99.90
15937;DHT22;9163;48.818;8.976;2023-04-25T13:08:59;10.30;99.90
15937;DHT22;9163;48.818;8.976;2023-04-25T13:11:26;10.40;99.90
15937;DHT22;9163;48.818;8.976;2023-04-25T13:13:53;10.40;99.90
15937;DHT22;9163;48.818;8.976;2023-04-25T13:16:22;10.40;99.90
15937;DHT22;9163;48.818;8.976;2023-04-25T13:18:49;10.60;99.90
15937;DHT22;9163;48.818;8.976;2023-04-25T13:21:16;10.90;99.90
15937;DHT22;9163;48.818;8.976;2023-04-25T13:23:44;11.10;99.90
15937;DHT22;9163;48.818;8.976;2023-04-25T13:26:12;11.20;99.90
15937;DHT22;9163;48.818;8.976;2023-04-25T13:28:39;11.30;99.90
15937;DHT22;9163;48.818;8.976;2023-04-25T13:31:07;11.00;99.90
15937;DHT22;9163;48.818;8.976;2023-04-25T13:33:36;10.90;99.90
15937;DHT22;9163;48.818;8.976;2023-04-25T13:36:03;10.70;99.90
15937;DHT22;9163;48.818;8.976;2023-04-25T13:38:31;10.40;99.90
15937;DHT22;9163;48.818;8.976;2023-04-25T13:40:58;10.30;99.90
15937;DHT22;9163;48.818;8.976;2023-04-25T13:43:26;10.40;99.90
15937;DHT22;9163;48.818;8.976;2023-04-25T13:45:55;10.50;99.90
15937;DHT22;9163;48.818;8.976;2023-04-25T13:48:24;10.80;99.90
15937;DHT22;9163;48.818;8.976;2023-04-25T13:50:53;11.80;99.90
15937;DHT22;9163;48.818;8.976;2023-04-25T13:53:20;12.40;99.90
15937;DHT22;9163;48.818;8.976;2023-04-25T13:55:50;12.10;92.30
15937;DHT22;9163;48.818;8.976;2023-04-25T13:58:17;12.20;93.10
15937;DHT22;9163;48.818;8.976;2023-04-25T14:00:46;12.70;99.90
15937;DHT22;9163;48.818;8.976;2023-04-25T14:03:13;12.60;51.10
15937;DHT22;9163;48.818;8.976;2023-04-25T14:05:40;12.30;46.00
15937;DHT22;9163;48.818;8.976;2023-04-25T14:08:10;11.90;30.70
15937;DHT22;9163;48.818;8.976;2023-04-25T14:10:37;12.30;57.80
15937;DHT22;9163;48.818;8.976;2023-04-25T14:13:05;11.90;77.20
15937;DHT22;9163;48.818;8.976;2023-04-25T14:15:33;11.50;93.40
15937;DHT22;9163;48.818;8.976;2023-04-25T14:18:01;11.10;99.90
15937;DHT22;9163;48.818;8.976;2023-04-25T14:20:29;11.40;99.90
15937;DHT22;9163;48.818;8.976;2023-04-25T14:22:57;10.80;89.50
15937;DHT22;9163;48.818;8.976;2023-04-25T14:25:27;10.50;99.90
15937;DHT22;9163;48.818;8.976;2023-04-25T14:27:57;10.30;99.90
15937;DHT22;9163;48.818;8.976;2023-04-25T14:30:24;10.60;99.90
15937;DHT22;9163;48.818;8.976;2023-04-25T14:32:51;10.00;99.90
15937;DHT22;9163;48.818;8.976;2023-04-25T14:35:19;10.00;99.90
15937;DHT22;9163;48.818;8.976;2023-04-25T14:37:46;10.10;99.90
15937;DHT22;9163;48.818;8.976;2023-04-25T14:40:13;10.50;99.90
15937;DHT22;9163;48.818;8.976;2023-04-25T14:42:44;11.30;99.90
15937;DHT22;9163;48.818;8.976;2023-04-25T14:45:11;10.70;90.00
15937;DHT22;9163;48.818;8.976;2023-04-25T14:47:39;11.50;96.60
15937;DHT22;9163;48.818;8.976;2023-04-25T14:50:08;11.40;54.70
15937;DHT22;9163;48.818;8.976;2023-04-25T14:52:35;12.00;90.00
15937;DHT22;9163;48.818;8.976;2023-04-25T14:55:03;12.40;48.50
15937;DHT22;9163;48.818;8.976;2023-04-25T14:57:32;12.30;20.60
15937;DHT22;9163;48.818;8.976;2023-04-25T15:00:01;12.60;17.20
15937;DHT22;9163;48.818;8.976;2023-04-25T15:02:31;12.10;25.50
15937;DHT22;9163;48.818;8.976;2023-04-25T15:04:58;12.20;30.40
15937;DHT22;9163;48.818;8.976;2023-04-25T15:07:26;12.20;33.90
15937;DHT22;9163;48.818;8.976;2023-04-25T15:09:53;12.60;6.50
15937;DHT22;9163;48.818;8.976;2023-04-25T15:12:22;12.70;1.00
15937;DHT22;9163;48.818;8.976;2023-04-25T15:14:51;12.60;8.70
15937;DHT22;9163;48.818;8.976;2023-04-25T15:17:20;12.20;14.30
15937;DHT22;9163;48.818;8.976;2023-04-25T15:19:47;12.30;4.20
15937;DHT22;9163;48.818;8.976;2023-04-25T15:22:15;12.20;1.00
15937;DHT22;9163;48.818;8.976;2023-04-25T15:24:42;12.20;43.90
15937;DHT22;9163;48.818;8.976;2023-04-25T15:27:09;12.00;2.60
15937;DHT22;9163;48.818;8.976;2023-04-25T15:29:37;12.70;29.20
15937;DHT22;9163;48.818;8.976;2023-04-25T15:32:04;13.10;15.50
15937;DHT22;9163;48.818;8.976;2023-04-25T15:34:33;13.10;1.00
15937;DHT22;9163;48.818;8.976;2023-04-25T15:37:00;13.00;1.00
15937;DHT22;9163;48.818;8.976;2023-04-25T15:39:27;12.80;1.00
15937;DHT22;9163;48.818;8.976;2023-04-25T15:41:55;12.70;1.00
15937;DHT22;9163;48.818;8.976;2023-04-25T15:44:24;12.50;1.00
15937;DHT22;9163;48.818;8.976;2023-04-25T15:46:51;12.60;1.00
15937;DHT22;9163;48.818;8.976;2023-04-25T15:49:18;12.60;1.00
15937;DHT22;9163;48.818;8.976;2023-04-25T15:51:48;12.50;14.90
15937;DHT22;9163;48.818;8.976;2023-04-25T15:54:15;12.30;8.10
15937;DHT22;9163;48.818;8.976;2023-04-25T15:56:43;12.20;21.00
15937;DHT22;9163;48.818;8.976;2023-04-25T15:59:10;12.00;22.50
15937;DHT22;9163;48.818;8.976;2023-04-25T16:01:38;11.80;21.00
15937;DHT22;9163;48.818;8.976;2023-04-25T16:04:05;11.70;38.80